Terminal Aerodrome Forecast
Issued by NWS Amarillo, TX

Home | Current Version | Previous Version | Text Only | Print | Product List | Glossary On
Versions: 1 2 3 4 5 6 7 8 9 10 11 12 13 14 15
604
FTUS44 KAMA 251747
TAFDHT
TAF
KDHT 251747Z 2518/2618 09008KT P6SM SCT050
     FM252300 09009KT P6SM VCTS SCT050CB BKN300
     FM260300 08009KT P6SM SCT050 BKN300 PROB30 2603/2607 3SM TSRA
      OVC040CB
     FM260800 05007KT P6SM SCT100 BKN300=

USA.gov is the U.S. government's official web portal to all federal, state and local government web resources and services.